sensor_id;sensor_type;location;lat;lon;timestamp;pressure;altitude;pressure_sealevel;temperature;humidity
61697;BME280;47610;52.252;20.922;2023-05-22T00:00:24;100732.83;;;15.99;100.00
61697;BME280;47610;52.252;20.922;2023-05-22T00:05:27;100725.84;;;15.95;100.00
61697;BME280;47610;52.252;20.922;2023-05-22T00:10:31;100727.70;;;15.90;100.00
61697;BME280;47610;52.252;20.922;2023-05-22T00:15:34;100721.96;;;15.84;100.00
61697;BME280;47610;52.252;20.922;2023-05-22T00:20:37;100722.99;;;15.79;100.00
61697;BME280;47610;52.252;20.922;2023-05-22T00:25:41;100717.93;;;15.73;100.00
61697;BME280;47610;52.252;20.922;2023-05-22T00:30:44;100718.57;;;15.69;100.00
61697;BME280;47610;52.252;20.922;2023-05-22T00:35:47;100717.45;;;15.65;100.00
61697;BME280;47610;52.252;20.922;2023-05-22T00:40:50;100713.50;;;15.59;100.00
61697;BME280;47610;52.252;20.922;2023-05-22T00:45:54;100712.41;;;15.50;100.00
61697;BME280;47610;52.252;20.922;2023-05-22T00:50:57;100710.58;;;15.43;100.00
61697;BME280;47610;52.252;20.922;2023-05-22T00:56:01;100715.05;;;15.36;100.00
61697;BME280;47610;52.252;20.922;2023-05-22T01:01:05;100708.23;;;15.28;100.00
61697;BME280;47610;52.252;20.922;2023-05-22T01:06:08;100713.10;;;15.18;100.00
61697;BME280;47610;52.252;20.922;2023-05-22T01:11:14;100712.88;;;15.06;100.00
61697;BME280;47610;52.252;20.922;2023-05-22T01:16:25;100708.27;;;14.98;100.00
61697;BME280;47610;52.252;20.922;2023-05-22T01:21:38;100714.15;;;14.88;100.00
61697;BME280;47610;52.252;20.922;2023-05-22T01:32:25;100711.61;;;14.74;100.00
61697;BME280;47610;52.252;20.922;2023-05-22T01:37:30;100710.23;;;14.68;100.00
61697;BME280;47610;52.252;20.922;2023-05-22T01:42:33;100711.44;;;14.61;100.00
61697;BME280;47610;52.252;20.922;2023-05-22T01:47:36;100707.36;;;14.51;100.00
61697;BME280;47610;52.252;20.922;2023-05-22T01:52:54;100710.47;;;14.45;100.00
61697;BME280;47610;52.252;20.922;2023-05-22T01:58:13;100710.55;;;14.38;100.00
61697;BME280;47610;52.252;20.922;2023-05-22T02:03:21;100712.98;;;14.32;100.00
61697;BME280;47610;52.252;20.922;2023-05-22T02:08:25;100714.80;;;14.27;100.00
61697;BME280;47610;52.252;20.922;2023-05-22T02:13:28;100716.35;;;14.23;100.00
61697;BME280;47610;52.252;20.922;2023-05-22T02:18:32;100710.59;;;14.17;100.00
61697;BME280;47610;52.252;20.922;2023-05-22T02:23:35;100711.45;;;14.13;100.00
61697;BME280;47610;52.252;20.922;2023-05-22T02:28:38;100711.38;;;14.10;100.00
61697;BME280;47610;52.252;20.922;2023-05-22T02:33:41;100711.10;;;14.05;100.00
61697;BME280;47610;52.252;20.922;2023-05-22T02:38:44;100707.48;;;14.02;100.00
61697;BME280;47610;52.252;20.922;2023-05-22T02:43:48;100700.26;;;13.98;100.00
61697;BME280;47610;52.252;20.922;2023-05-22T02:48:51;100703.64;;;13.96;100.00
61697;BME280;47610;52.252;20.922;2023-05-22T02:53:55;100695.65;;;14.00;100.00
61697;BME280;47610;52.252;20.922;2023-05-22T02:58:58;100692.31;;;14.06;100.00
61697;BME280;47610;52.252;20.922;2023-05-22T03:04:01;100690.55;;;14.12;100.00
61697;BME280;47610;52.252;20.922;2023-05-22T03:09:05;100688.69;;;14.26;100.00
61697;BME280;47610;52.252;20.922;2023-05-22T03:14:08;100690.23;;;14.52;100.00
61697;BME280;47610;52.252;20.922;2023-05-22T03:19:12;100686.59;;;14.90;100.00
61697;BME280;47610;52.252;20.922;2023-05-22T03:24:16;100690.20;;;15.52;100.00
61697;BME280;47610;52.252;20.922;2023-05-22T03:29:19;100691.38;;;16.36;100.00
61697;BME280;47610;52.252;20.922;2023-05-22T03:34:22;100694.89;;;17.47;100.00
61697;BME280;47610;52.252;20.922;2023-05-22T03:39:26;100694.53;;;18.63;100.00
61697;BME280;47610;52.252;20.922;2023-05-22T03:44:29;100700.64;;;19.63;100.00
61697;BME280;47610;52.252;20.922;2023-05-22T03:49:32;100701.88;;;20.64;98.78
61697;BME280;47610;52.252;20.922;2023-05-22T03:54:35;100704.50;;;21.57;91.98
61697;BME280;47610;52.252;20.922;2023-05-22T03:59:39;100708.90;;;22.52;85.74
61697;BME280;47610;52.252;20.922;2023-05-22T04:04:42;100710.71;;;23.45;78.32
61697;BME280;47610;52.252;20.922;2023-05-22T04:09:45;100712.98;;;24.45;72.54
61697;BME280;47610;52.252;20.922;2023-05-22T04:14:48;100710.54;;;25.77;67.54
61697;BME280;47610;52.252;20.922;2023-05-22T04:19:51;100704.56;;;27.28;58.99
61697;BME280;47610;52.252;20.922;2023-05-22T04:24:54;100706.91;;;28.56;50.68
61697;BME280;47610;52.252;20.922;2023-05-22T04:29:58;100704.09;;;29.74;43.85
61697;BME280;47610;52.252;20.922;2023-05-22T04:35:01;100696.63;;;30.83;39.43
61697;BME280;47610;52.252;20.922;2023-05-22T04:40:06;100698.60;;;31.66;35.93
61697;BME280;47610;52.252;20.922;2023-05-22T04:45:11;100701.28;;;32.44;32.27
61697;BME280;47610;52.252;20.922;2023-05-22T04:50:14;100702.38;;;33.26;30.31
61697;BME280;47610;52.252;20.922;2023-05-22T04:55:17;100701.88;;;34.45;28.64
61697;BME280;47610;52.252;20.922;2023-05-22T05:00:21;100705.19;;;35.26;26.48
61697;BME280;47610;52.252;20.922;2023-05-22T05:05:24;100700.92;;;35.76;25.47
61697;BME280;47610;52.252;20.922;2023-05-22T05:10:28;100703.20;;;36.04;24.21
61697;BME280;47610;52.252;20.922;2023-05-22T05:15:31;100702.91;;;35.05;24.73
61697;BME280;47610;52.252;20.922;2023-05-22T05:20:33;100700.48;;;32.47;26.67
61697;BME280;47610;52.252;20.922;2023-05-22T05:25:36;100699.45;;;29.82;29.87
61697;BME280;47610;52.252;20.922;2023-05-22T05:30:39;100694.31;;;27.83;33.34
61697;BME280;47610;52.252;20.922;2023-05-22T05:35:41;100690.89;;;26.75;37.29
61697;BME280;47610;52.252;20.922;2023-05-22T05:40:45;100690.80;;;25.94;41.66
61697;BME280;47610;52.252;20.922;2023-05-22T05:45:48;100693.23;;;25.52;42.92
61697;BME280;47610;52.252;20.922;2023-05-22T05:50:51;100694.34;;;25.26;44.95
61697;BME280;47610;52.252;20.922;2023-05-22T05:55:54;100694.95;;;24.78;46.91
61697;BME280;47610;52.252;20.922;2023-05-22T06:00:57;100690.91;;;24.28;48.71
61697;BME280;47610;52.252;20.922;2023-05-22T06:06:00;100686.70;;;23.96;51.41
61697;BME280;47610;52.252;20.922;2023-05-22T06:11:04;100682.08;;;23.80;53.02
61697;BME280;47610;52.252;20.922;2023-05-22T06:16:07;100680.01;;;23.78;54.27
61697;BME280;47610;52.252;20.922;2023-05-22T06:21:11;100682.96;;;24.16;56.66
61697;BME280;47610;52.252;20.922;2023-05-22T06:26:14;100676.94;;;24.74;55.18
61697;BME280;47610;52.252;20.922;2023-05-22T06:31:17;100676.67;;;24.74;52.40
61697;BME280;47610;52.252;20.922;2023-05-22T06:36:20;100670.46;;;24.14;48.30
61697;BME280;47610;52.252;20.922;2023-05-22T06:41:24;100668.02;;;23.75;51.13
61697;BME280;47610;52.252;20.922;2023-05-22T06:46:27;100669.55;;;23.68;52.60
61697;BME280;47610;52.252;20.922;2023-05-22T06:51:30;100668.37;;;23.71;49.61
61697;BME280;47610;52.252;20.922;2023-05-22T06:56:33;100665.98;;;24.12;50.74
61697;BME280;47610;52.252;20.922;2023-05-22T07:01:37;100666.51;;;24.72;48.83
61697;BME280;47610;52.252;20.922;2023-05-22T07:06:40;100665.40;;;24.86;45.97
61697;BME280;47610;52.252;20.922;2023-05-22T07:11:44;100663.30;;;25.32;42.30
61697;BME280;47610;52.252;20.922;2023-05-22T07:16:45;100664.93;;;25.63;39.91
61697;BME280;47610;52.252;20.922;2023-05-22T07:21:48;100656.66;;;25.30;39.86
61697;BME280;47610;52.252;20.922;2023-05-22T07:26:52;100653.28;;;24.95;40.19
61697;BME280;47610;52.252;20.922;2023-05-22T07:31:55;100652.25;;;24.68;41.32
61697;BME280;47610;52.252;20.922;2023-05-22T07:36:58;100651.97;;;24.50;40.74
61697;BME280;47610;52.252;20.922;2023-05-22T07:42:01;100655.73;;;24.26;39.82
61697;BME280;47610;52.252;20.922;2023-05-22T07:47:05;100644.89;;;24.14;39.56
61697;BME280;47610;52.252;20.922;2023-05-22T07:52:08;100642.73;;;24.24;37.00
61697;BME280;47610;52.252;20.922;2023-05-22T07:57:12;100637.98;;;24.84;35.41
61697;BME280;47610;52.252;20.922;2023-05-22T08:02:15;100639.53;;;25.26;33.22
61697;BME280;47610;52.252;20.922;2023-05-22T08:07:17;100643.42;;;25.21;31.50
61697;BME280;47610;52.252;20.922;2023-05-22T08:12:20;100640.13;;;24.76;31.88
61697;BME280;47610;52.252;20.922;2023-05-22T08:17:23;100643.63;;;24.78;32.91
61697;BME280;47610;52.252;20.922;2023-05-22T08:22:29;100642.00;;;25.43;31.26
61697;BME280;47610;52.252;20.922;2023-05-22T08:27:32;100636.95;;;25.56;31.56
61697;BME280;47610;52.252;20.922;2023-05-22T08:32:36;100628.27;;;26.47;30.61
61697;BME280;47610;52.252;20.922;2023-05-22T08:37:39;100634.31;;;29.08;27.21
61697;BME280;47610;52.252;20.922;2023-05-22T08:42:42;100632.77;;;31.06;24.94
61697;BME280;47610;52.252;20.922;2023-05-22T08:47:44;100638.64;;;31.87;23.21
61697;BME280;47610;52.252;20.922;2023-05-22T08:52:51;100635.52;;;32.80;22.02
61697;BME280;47610;52.252;20.922;2023-05-22T08:57:55;100631.66;;;32.64;21.42
61697;BME280;47610;52.252;20.922;2023-05-22T09:02:59;100628.94;;;30.41;22.44
61697;BME280;47610;52.252;20.922;2023-05-22T09:08:03;100624.53;;;28.29;24.30
61697;BME280;47610;52.252;20.922;2023-05-22T09:13:08;100618.71;;;27.20;27.01
61697;BME280;47610;52.252;20.922;2023-05-22T09:18:11;100609.67;;;26.55;28.26
61697;BME280;47610;52.252;20.922;2023-05-22T09:23:15;100604.25;;;26.03;29.70
61697;BME280;47610;52.252;20.922;2023-05-22T09:28:18;100597.07;;;25.60;33.09
61697;BME280;47610;52.252;20.922;2023-05-22T09:33:22;100600.41;;;25.05;33.01
61697;BME280;47610;52.252;20.922;2023-05-22T09:38:27;100592.91;;;24.58;33.10
61697;BME280;47610;52.252;20.922;2023-05-22T09:43:31;100588.14;;;24.22;33.39
61697;BME280;47610;52.252;20.922;2023-05-22T09:48:35;100582.20;;;23.99;34.48
61697;BME280;47610;52.252;20.922;2023-05-22T09:53:41;100582.98;;;23.96;35.68
61697;BME280;47610;52.252;20.922;2023-05-22T09:58:46;100579.70;;;24.09;37.22
61697;BME280;47610;52.252;20.922;2023-05-22T10:03:52;100576.28;;;24.10;35.51
61697;BME280;47610;52.252;20.922;2023-05-22T10:09:00;100575.66;;;23.90;34.27
61697;BME280;47610;52.252;20.922;2023-05-22T10:14:04;100579.91;;;23.83;35.77
61697;BME280;47610;52.252;20.922;2023-05-22T10:19:07;100582.52;;;23.81;35.11
61697;BME280;47610;52.252;20.922;2023-05-22T10:24:11;100577.83;;;23.77;34.92
61697;BME280;47610;52.252;20.922;2023-05-22T10:29:19;100578.27;;;23.70;34.47
61697;BME280;47610;52.252;20.922;2023-05-22T10:34:29;100576.60;;;23.74;35.51
61697;BME280;47610;52.252;20.922;2023-05-22T10:39:48;100571.80;;;23.89;35.94
61697;BME280;47610;52.252;20.922;2023-05-22T10:44:54;100563.19;;;23.95;34.75
61697;BME280;47610;52.252;20.922;2023-05-22T10:50:05;100563.27;;;23.95;34.53
61697;BME280;47610;52.252;20.922;2023-05-22T10:55:11;100559.09;;;24.11;35.01
61697;BME280;47610;52.252;20.922;2023-05-22T11:00:16;100557.32;;;24.30;33.68
61697;BME280;47610;52.252;20.922;2023-05-22T11:05:33;100556.83;;;24.55;33.62
61697;BME280;47610;52.252;20.922;2023-05-22T11:10:53;100551.89;;;24.65;31.38
61697;BME280;47610;52.252;20.922;2023-05-22T11:15:56;100546.96;;;24.82;31.73
61697;BME280;47610;52.252;20.922;2023-05-22T11:21:00;100545.30;;;24.97;32.14
61697;BME280;47610;52.252;20.922;2023-05-22T11:31:19;100522.79;;;24.95;32.33
61697;BME280;47610;52.252;20.922;2023-05-22T11:36:23;100523.67;;;24.87;32.38
61697;BME280;47610;52.252;20.922;2023-05-22T11:41:30;100523.17;;;24.98;32.24
61697;BME280;47610;52.252;20.922;2023-05-22T11:46:33;100517.58;;;25.12;32.25
61697;BME280;47610;52.252;20.922;2023-05-22T11:51:38;100510.80;;;25.17;32.68
61697;BME280;47610;52.252;20.922;2023-05-22T11:56:43;100509.56;;;25.27;32.20
61697;BME280;47610;52.252;20.922;2023-05-22T12:01:49;100507.73;;;25.37;31.27
61697;BME280;47610;52.252;20.922;2023-05-22T12:06:52;100501.56;;;25.47;30.64
61697;BME280;47610;52.252;20.922;2023-05-22T12:11:56;100498.73;;;25.46;30.74
61697;BME280;47610;52.252;20.922;2023-05-22T12:16:58;100496.23;;;25.42;30.38
61697;BME280;47610;52.252;20.922;2023-05-22T12:22:04;100491.02;;;25.21;30.22
61697;BME280;47610;52.252;20.922;2023-05-22T12:27:09;100480.83;;;24.96;31.08
61697;BME280;47610;52.252;20.922;2023-05-22T12:32:13;100479.59;;;24.91;30.94
61697;BME280;47610;52.252;20.922;2023-05-22T12:37:23;100473.56;;;24.83;31.52
61697;BME280;47610;52.252;20.922;2023-05-22T12:42:27;100472.16;;;24.66;33.36
61697;BME280;47610;52.252;20.922;2023-05-22T12:47:31;100470.68;;;24.57;31.98
61697;BME280;47610;52.252;20.922;2023-05-22T12:52:34;100460.02;;;24.48;32.40
61697;BME280;47610;52.252;20.922;2023-05-22T12:57:37;100465.21;;;24.46;32.24
61697;BME280;47610;52.252;20.922;2023-05-22T13:02:41;100465.31;;;24.47;32.12
61697;BME280;47610;52.252;20.922;2023-05-22T13:07:44;100459.52;;;24.50;32.18
61697;BME280;47610;52.252;20.922;2023-05-22T13:12:47;100453.13;;;24.49;33.03
61697;BME280;47610;52.252;20.922;2023-05-22T13:17:50;100453.41;;;24.47;33.04
61697;BME280;47610;52.252;20.922;2023-05-22T13:22:53;100455.73;;;24.30;33.18
61697;BME280;47610;52.252;20.922;2023-05-22T13:27:58;100455.73;;;24.09;32.90
61697;BME280;47610;52.252;20.922;2023-05-22T13:33:02;100447.17;;;23.90;34.18
61697;BME280;47610;52.252;20.922;2023-05-22T13:38:05;100446.65;;;23.82;34.20
61697;BME280;47610;52.252;20.922;2023-05-22T13:43:08;100440.30;;;23.70;33.37
61697;BME280;47610;52.252;20.922;2023-05-22T13:48:12;100432.23;;;23.68;33.31
61697;BME280;47610;52.252;20.922;2023-05-22T13:53:29;100426.33;;;23.63;33.26
61697;BME280;47610;52.252;20.922;2023-05-22T13:58:32;100422.98;;;23.58;33.73
61697;BME280;47610;52.252;20.922;2023-05-22T14:03:35;100420.88;;;23.51;34.47
61697;BME280;47610;52.252;20.922;2023-05-22T14:08:38;100412.17;;;23.43;34.77
61697;BME280;47610;52.252;20.922;2023-05-22T14:13:43;100415.73;;;23.48;34.91
61697;BME280;47610;52.252;20.922;2023-05-22T14:18:46;100417.13;;;23.45;34.04
61697;BME280;47610;52.252;20.922;2023-05-22T14:23:49;100406.33;;;23.50;34.31
61697;BME280;47610;52.252;20.922;2023-05-22T14:28:52;100403.44;;;23.56;35.05
61697;BME280;47610;52.252;20.922;2023-05-22T14:33:56;100399.43;;;23.66;34.25
61697;BME280;47610;52.252;20.922;2023-05-22T14:38:59;100398.73;;;23.74;34.43
61697;BME280;47610;52.252;20.922;2023-05-22T14:44:02;100396.88;;;23.74;34.59
61697;BME280;47610;52.252;20.922;2023-05-22T14:49:05;100395.69;;;23.68;34.31
61697;BME280;47610;52.252;20.922;2023-05-22T14:54:08;100391.33;;;23.60;34.47
61697;BME280;47610;52.252;20.922;2023-05-22T14:59:11;100386.06;;;23.45;34.83
61697;BME280;47610;52.252;20.922;2023-05-22T15:04:15;100384.67;;;23.34;34.82
61697;BME280;47610;52.252;20.922;2023-05-22T15:09:18;100385.59;;;23.23;35.35
61697;BME280;47610;52.252;20.922;2023-05-22T15:14:22;100378.26;;;23.16;35.27
61697;BME280;47610;52.252;20.922;2023-05-22T15:19:25;100376.05;;;23.12;35.75
61697;BME280;47610;52.252;20.922;2023-05-22T15:24:28;100376.91;;;23.05;36.32
61697;BME280;47610;52.252;20.922;2023-05-22T15:29:31;100372.61;;;23.03;36.82
61697;BME280;47610;52.252;20.922;2023-05-22T15:34:35;100364.09;;;22.99;36.16
61697;BME280;47610;52.252;20.922;2023-05-22T15:39:38;100365.71;;;22.95;36.12
61697;BME280;47610;52.252;20.922;2023-05-22T15:44:41;100363.79;;;23.09;36.54
61697;BME280;47610;52.252;20.922;2023-05-22T15:49:47;100356.80;;;23.40;36.08
61697;BME280;47610;52.252;20.922;2023-05-22T15:54:50;100348.11;;;23.39;35.65
61697;BME280;47610;52.252;20.922;2023-05-22T15:59:55;100345.48;;;23.30;35.72
61697;BME280;47610;52.252;20.922;2023-05-22T16:04:58;100340.45;;;23.16;36.56
61697;BME280;47610;52.252;20.922;2023-05-22T16:10:03;100334.78;;;23.04;37.41
61697;BME280;47610;52.252;20.922;2023-05-22T16:15:09;100332.82;;;23.00;37.51
61697;BME280;47610;52.252;20.922;2023-05-22T16:20:13;100332.65;;;23.05;37.36
61697;BME280;47610;52.252;20.922;2023-05-22T16:25:16;100327.45;;;23.18;36.91
61697;BME280;47610;52.252;20.922;2023-05-22T16:30:20;100323.83;;;23.21;36.96
61697;BME280;47610;52.252;20.922;2023-05-22T16:35:23;100322.34;;;23.26;37.21
61697;BME280;47610;52.252;20.922;2023-05-22T16:40:26;100323.30;;;23.19;36.74
61697;BME280;47610;52.252;20.922;2023-05-22T16:45:30;100324.83;;;23.01;36.50
61697;BME280;47610;52.252;20.922;2023-05-22T16:50:33;100327.08;;;22.81;36.78
61697;BME280;47610;52.252;20.922;2023-05-22T16:55:36;100325.02;;;22.66;37.68
61697;BME280;47610;52.252;20.922;2023-05-22T17:00:39;100328.45;;;22.57;38.26
61697;BME280;47610;52.252;20.922;2023-05-22T17:05:43;100333.52;;;22.44;38.51
61697;BME280;47610;52.252;20.922;2023-05-22T17:10:46;100336.16;;;22.35;38.85
61697;BME280;47610;52.252;20.922;2023-05-22T17:15:49;100341.46;;;22.25;39.19
61697;BME280;47610;52.252;20.922;2023-05-22T17:20:53;100339.79;;;22.15;39.34
61697;BME280;47610;52.252;20.922;2023-05-22T17:25:56;100336.48;;;22.03;39.66
61697;BME280;47610;52.252;20.922;2023-05-22T17:30:59;100332.21;;;21.92;39.86
61697;BME280;47610;52.252;20.922;2023-05-22T17:36:03;100336.66;;;21.83;40.46
61697;BME280;47610;52.252;20.922;2023-05-22T17:41:06;100332.92;;;21.73;40.69
61697;BME280;47610;52.252;20.922;2023-05-22T17:46:09;100334.45;;;21.61;40.79
61697;BME280;47610;52.252;20.922;2023-05-22T17:51:14;100331.41;;;21.51;41.61
61697;BME280;47610;52.252;20.922;2023-05-22T17:56:17;100327.73;;;21.43;42.31
61697;BME280;47610;52.252;20.922;2023-05-22T18:01:20;100324.02;;;21.36;42.87
61697;BME280;47610;52.252;20.922;2023-05-22T18:06:23;100324.02;;;21.26;43.61
61697;BME280;47610;52.252;20.922;2023-05-22T18:11:27;100320.98;;;21.17;43.99
61697;BME280;47610;52.252;20.922;2023-05-22T18:16:30;100324.39;;;21.07;44.46
61697;BME280;47610;52.252;20.922;2023-05-22T18:21:33;100322.89;;;20.97;44.91
61697;BME280;47610;52.252;20.922;2023-05-22T18:26:37;100324.39;;;20.90;45.21
61697;BME280;47610;52.252;20.922;2023-05-22T18:31:40;100323.30;;;20.84;45.75
61697;BME280;47610;52.252;20.922;2023-05-22T18:36:44;100321.79;;;20.78;46.11
61697;BME280;47610;52.252;20.922;2023-05-22T18:41:50;100321.98;;;20.72;47.50
61697;BME280;47610;52.252;20.922;2023-05-22T18:46:54;100324.40;;;20.61;50.32
61697;BME280;47610;52.252;20.922;2023-05-22T18:51:56;100328.59;;;20.47;52.46
61697;BME280;47610;52.252;20.922;2023-05-22T18:56:59;100332.71;;;20.31;54.37
61697;BME280;47610;52.252;20.922;2023-05-22T19:02:04;100329.30;;;20.11;56.05
61697;BME280;47610;52.252;20.922;2023-05-22T19:07:07;100338.59;;;19.97;58.38
61697;BME280;47610;52.252;20.922;2023-05-22T19:12:10;100339.20;;;19.79;60.85
61697;BME280;47610;52.252;20.922;2023-05-22T19:17:14;100338.02;;;19.66;61.94
61697;BME280;47610;52.252;20.922;2023-05-22T19:22:17;100336.15;;;19.58;62.19
61697;BME280;47610;52.252;20.922;2023-05-22T19:27:20;100336.74;;;19.52;61.72
61697;BME280;47610;52.252;20.922;2023-05-22T19:32:24;100337.26;;;19.47;63.86
61697;BME280;47610;52.252;20.922;2023-05-22T19:37:27;100341.73;;;19.43;65.55
61697;BME280;47610;52.252;20.922;2023-05-22T19:42:30;100333.80;;;19.37;66.07
61697;BME280;47610;52.252;20.922;2023-05-22T19:47:33;100335.16;;;19.27;65.81
61697;BME280;47610;52.252;20.922;2023-05-22T19:52:37;100335.58;;;19.14;67.54
61697;BME280;47610;52.252;20.922;2023-05-22T19:57:40;100338.32;;;19.02;69.29
61697;BME280;47610;52.252;20.922;2023-05-22T20:02:43;100336.90;;;18.96;70.50
61697;BME280;47610;52.252;20.922;2023-05-22T20:07:46;100336.90;;;18.91;71.64
61697;BME280;47610;52.252;20.922;2023-05-22T20:12:51;100336.80;;;18.84;72.76
61697;BME280;47610;52.252;20.922;2023-05-22T20:17:54;100332.18;;;18.76;73.63
61697;BME280;47610;52.252;20.922;2023-05-22T20:22:57;100333.30;;;18.69;75.24
61697;BME280;47610;52.252;20.922;2023-05-22T20:28:01;100326.83;;;18.61;76.51
61697;BME280;47610;52.252;20.922;2023-05-22T20:33:05;100329.00;;;18.53;77.34
61697;BME280;47610;52.252;20.922;2023-05-22T20:38:08;100326.69;;;18.43;78.37
61697;BME280;47610;52.252;20.922;2023-05-22T20:43:12;100326.20;;;18.34;79.57
61697;BME280;47610;52.252;20.922;2023-05-22T20:48:15;100318.58;;;18.22;80.88
61697;BME280;47610;52.252;20.922;2023-05-22T20:53:18;100319.19;;;18.08;83.24
61697;BME280;47610;52.252;20.922;2023-05-22T20:58:21;100314.54;;;17.88;84.99
61697;BME280;47610;52.252;20.922;2023-05-22T21:03:25;100314.16;;;17.69;86.67
61697;BME280;47610;52.252;20.922;2023-05-22T21:08:28;100319.02;;;17.56;88.47
61697;BME280;47610;52.252;20.922;2023-05-22T21:13:31;100319.73;;;17.49;89.79
61697;BME280;47610;52.252;20.922;2023-05-22T21:18:35;100318.52;;;17.46;90.98
61697;BME280;47610;52.252;20.922;2023-05-22T21:23:38;100310.13;;;17.36;93.23
61697;BME280;47610;52.252;20.922;2023-05-22T21:28:42;100310.70;;;17.24;93.69
61697;BME280;47610;52.252;20.922;2023-05-22T21:33:46;100306.63;;;17.15;94.40
61697;BME280;47610;52.252;20.922;2023-05-22T21:38:49;100304.05;;;17.09;94.85
61697;BME280;47610;52.252;20.922;2023-05-22T21:43:52;100307.08;;;17.07;95.31
61697;BME280;47610;52.252;20.922;2023-05-22T21:48:55;100310.80;;;17.06;96.55
61697;BME280;47610;52.252;20.922;2023-05-22T21:53:59;100315.50;;;17.03;97.08
61697;BME280;47610;52.252;20.922;2023-05-22T21:59:02;100310.48;;;16.98;97.83
61697;BME280;47610;52.252;20.922;2023-05-22T22:04:05;100309.52;;;16.89;98.37
61697;BME280;47610;52.252;20.922;2023-05-22T22:09:08;100305.24;;;16.75;98.02
61697;BME280;47610;52.252;20.922;2023-05-22T22:14:11;100307.97;;;16.66;99.27
61697;BME280;47610;52.252;20.922;2023-05-22T22:19:15;100310.59;;;16.57;99.96
61697;BME280;47610;52.252;20.922;2023-05-22T22:24:18;100306.98;;;16.50;100.00
61697;BME280;47610;52.252;20.922;2023-05-22T22:29:21;100302.78;;;16.47;100.00
61697;BME280;47610;52.252;20.922;2023-05-22T22:34:24;100296.70;;;16.42;100.00
61697;BME280;47610;52.252;20.922;2023-05-22T22:39:28;100295.45;;;16.37;100.00
61697;BME280;47610;52.252;20.922;2023-05-22T22:44:31;100295.36;;;16.29;100.00
61697;BME280;47610;52.252;20.922;2023-05-22T22:49:34;100296.58;;;16.19;100.00
61697;BME280;47610;52.252;20.922;2023-05-22T22:54:37;100294.48;;;16.06;100.00
61697;BME280;47610;52.252;20.922;2023-05-22T22:59:40;100290.91;;;15.96;100.00
61697;BME280;47610;52.252;20.922;2023-05-22T23:04:44;100282.42;;;15.90;100.00
61697;BME280;47610;52.252;20.922;2023-05-22T23:09:47;100279.04;;;15.86;100.00
61697;BME280;47610;52.252;20.922;2023-05-22T23:14:50;100270.92;;;15.81;100.00
61697;BME280;47610;52.252;20.922;2023-05-22T23:19:53;100273.48;;;15.74;100.00
61697;BME280;47610;52.252;20.922;2023-05-22T23:24:56;100267.80;;;15.61;100.00
61697;BME280;47610;52.252;20.922;2023-05-22T23:29:59;100262.16;;;15.48;100.00
61697;BME280;47610;52.252;20.922;2023-05-22T23:35:03;100258.73;;;15.40;100.00
61697;BME280;47610;52.252;20.922;2023-05-22T23:40:08;100254.41;;;15.34;100.00
61697;BME280;47610;52.252;20.922;2023-05-22T23:45:12;100253.09;;;15.28;100.00
61697;BME280;47610;52.252;20.922;2023-05-22T23:50:16;100253.40;;;15.24;100.00
61697;BME280;47610;52.252;20.922;2023-05-22T23:55:19;100245.55;;;15.18;100.00
